Woodcrest, California
Current Conditions -  °F | °C
As of 2:53 PM on Saturday 20 Dec 2014 (Local Time) from KRAL Reporting Station
Clear Clear  
Wind Chill: 58°   Ceiling: Unl
Heat Index: 58°   Visibility: 7mi
Dew Point: 47°   Wind: 0mph
Humidity: 67%   Direction: NA
Pressure: 30.11"   Gusts: NA
Location:  33.9119°N, 117.4°W
Report Text: KRAL 202253Z 00000KT 7SM CLR 14/08 A3011 RMK AO2 SLP187 T01440083
Loading
Personal Weather Stations






























Interactive Weather Map New forecast layout! Learn more

10-Day Weather Forecast

Advertisements
Track Severe Weather on mobile